createdAt,value
2022-10-14T00:03:46.330Z,35.51407
2022-10-14T00:08:47.906Z,35.40361
2022-10-14T00:13:49.542Z,37.39484
2022-10-14T00:18:51.291Z,37.58974
2022-10-14T00:23:52.917Z,37.66555
2022-10-14T00:28:54.584Z,37.60677
2022-10-14T00:33:56.238Z,38.10071
2022-10-14T00:38:57.795Z,38.44023
2022-10-14T00:43:59.389Z,39.17485
2022-10-14T00:49:01.186Z,38.95715
2022-10-14T00:54:02.839Z,39.44981
2022-10-14T00:59:04.430Z,39.77563
2022-10-14T01:04:06.070Z,41.25239
2022-10-14T01:09:07.660Z,41.07664
2022-10-14T01:14:09.245Z,40.35229
2022-10-14T01:19:10.856Z,40.77932
2022-10-14T01:24:12.425Z,42.30918
2022-10-14T01:29:13.991Z,41.64413
2022-10-14T01:34:15.722Z,41.88829
2022-10-14T01:39:17.309Z,42.87518
2022-10-14T01:44:18.879Z,42.57836
2022-10-14T01:49:20.523Z,42.77681
2022-10-14T01:54:22.094Z,42.52748
2022-10-14T01:59:23.672Z,42.41261
2022-10-14T02:04:25.324Z,42.37807
2022-10-14T02:09:26.975Z,43.40979
2022-10-14T02:14:28.667Z,43.83307
2022-10-14T02:19:30.245Z,44.94516
2022-10-14T02:24:31.848Z,44.65246
2022-10-14T02:29:33.412Z,44.72165
2022-10-14T02:34:35.010Z,44.36609
2022-10-14T02:39:36.643Z,45.40349
2022-10-14T02:44:38.198Z,45.42313
2022-10-14T02:49:39.838Z,46.08652
2022-10-14T02:54:41.429Z,46.17572
2022-10-14T02:59:42.984Z,46.68828
2022-10-14T03:04:44.622Z,47.18385
2022-10-14T03:09:46.225Z,45.39521
2022-10-14T03:14:47.792Z,48.55852
2022-10-14T03:19:49.377Z,49.08317
2022-10-14T03:24:50.945Z,47.97652
2022-10-14T03:29:52.536Z,48.54355
2022-10-14T03:34:54.183Z,49.50794
2022-10-14T03:39:55.788Z,49.75039
2022-10-14T03:44:57.397Z,47.14624
2022-10-14T03:49:59.080Z,49.86607
2022-10-14T03:55:00.772Z,52.18448
2022-10-14T04:00:02.401Z,49.85343
2022-10-14T04:05:03.989Z,51.57419
2022-10-14T04:10:05.561Z,53.40622
2022-10-14T04:15:07.194Z,50.53735
2022-10-14T04:20:08.791Z,51.12573
2022-10-14T04:25:10.388Z,53.50581
2022-10-14T04:30:11.953Z,52.60616
2022-10-14T04:35:13.501Z,51.74773
2022-10-14T04:40:15.170Z,53.33041
2022-10-14T04:45:16.925Z,49.75687
2022-10-14T04:50:18.541Z,52.56918
2022-10-14T04:55:20.112Z,52.88407
2022-10-14T05:00:21.694Z,52.3673
2022-10-14T05:05:23.276Z,54.21912
2022-10-14T05:10:24.849Z,53.04796
2022-10-14T05:15:26.452Z,54.06587
2022-10-14T05:20:28.034Z,53.27336
2022-10-14T05:25:29.651Z,56.57387
2022-10-14T05:30:34.517Z,56.99192
2022-10-14T05:35:57.483Z,55.19805
2022-10-14T05:41:00.239Z,53.50004
2022-10-14T05:46:01.849Z,53.25385
2022-10-14T05:51:03.467Z,56.74397
2022-10-14T05:56:05.057Z,58.23382
2022-10-14T06:01:06.641Z,56.05196
2022-10-14T06:06:08.260Z,50.83935
2022-10-14T06:11:09.899Z,58.51982
2022-10-14T06:16:11.498Z,56.80195
2022-10-14T06:21:13.113Z,58.67049
2022-10-14T06:26:14.704Z,59.81356
2022-10-14T06:31:16.337Z,61.30119
2022-10-14T06:36:17.966Z,59.97722
2022-10-14T06:41:19.635Z,60.23454
2022-10-14T06:46:21.281Z,54.44708
2022-10-14T06:51:22.878Z,59.38199
2022-10-14T06:56:24.471Z,61.89607
2022-10-14T07:01:26.133Z,57.77648
2022-10-14T07:06:27.805Z,58.22367
2022-10-14T07:11:29.391Z,59.18987
2022-10-14T07:16:30.990Z,60.07368
2022-10-14T07:21:32.663Z,58.65306
2022-10-14T07:26:34.260Z,57.65786
2022-10-14T07:31:35.869Z,59.84706
2022-10-14T07:36:37.469Z,60.44413
2022-10-14T07:41:39.087Z,61.33449
2022-10-14T07:46:40.669Z,58.53733
2022-10-14T07:51:42.305Z,59.15911
2022-10-14T07:56:43.875Z,57.51447
2022-10-14T08:01:45.514Z,57.65356
2022-10-14T08:06:47.192Z,60.21771
2022-10-14T08:11:48.781Z,63.13436
2022-10-14T08:16:50.389Z,63.47407
2022-10-14T08:21:52.082Z,60.01282
2022-10-14T08:26:53.670Z,60.41386
2022-10-14T08:31:55.287Z,61.31682
2022-10-14T08:36:56.936Z,60.72795
2022-10-14T08:40:31.535Z,61.1343
2022-10-14T08:43:48.656Z,62.52895
2022-10-14T08:48:50.226Z,60.3878
2022-10-14T08:53:51.857Z,59.12129
2022-10-14T08:58:53.451Z,55.4251
2022-10-14T09:03:55.058Z,57.73558
2022-10-14T09:09:10.247Z,59.03075
2022-10-14T09:14:11.828Z,58.67753
2022-10-14T09:19:13.476Z,62.28876
2022-10-14T09:24:52.859Z,62.90949
2022-10-14T09:29:54.458Z,60.037
2022-10-14T09:34:56.065Z,64.83312
2022-10-14T09:39:57.700Z,62.1605
2022-10-14T09:44:59.297Z,66.39872
2022-10-14T09:50:00.968Z,63.14574
2022-10-14T09:55:02.572Z,61.68054
2022-10-14T10:00:04.167Z,64.93181
2022-10-14T10:05:05.783Z,63.81759
2022-10-14T10:10:07.378Z,60.44448
2022-10-14T10:15:08.996Z,63.67848
2022-10-14T10:20:10.638Z,67.32263
2022-10-14T10:25:12.238Z,63.2911
2022-10-14T10:30:13.802Z,63.75871
2022-10-14T10:35:15.393Z,64.49928
2022-10-14T10:40:17.093Z,64.49075
2022-10-14T10:45:18.755Z,65.82114
2022-10-14T10:50:20.416Z,65.68315
2022-10-14T10:55:22.033Z,64.99504
2022-10-14T11:05:25.365Z,63.56556
2022-10-14T11:10:27.018Z,62.49765
2022-10-14T11:15:28.653Z,63.92932
2022-10-14T11:20:30.350Z,64.74831
2022-10-14T11:25:31.945Z,61.5472
2022-10-14T11:30:33.538Z,66.03674
2022-10-14T11:40:36.800Z,63.82506
2022-10-14T11:45:38.386Z,63.5001
2022-10-14T11:50:39.982Z,63.31255
2022-10-14T11:55:41.585Z,63.27366
2022-10-14T12:00:43.268Z,61.57135
2022-10-14T12:05:44.936Z,62.09552
2022-10-14T12:10:46.540Z,63.72274
2022-10-14T12:15:48.126Z,62.9732
2022-10-14T12:20:49.847Z,63.23043
2022-10-14T12:25:51.440Z,63.6204
2022-10-14T12:30:53.030Z,63.17825
2022-10-14T12:35:54.640Z,64.08969
2022-10-14T12:40:56.288Z,63.23776
2022-10-14T12:45:57.891Z,63.1502
2022-10-14T12:50:59.520Z,60.09158
2022-10-14T12:56:01.112Z,66.04406
2022-10-14T13:01:02.794Z,63.65991
2022-10-14T13:06:04.382Z,64.02682
2022-10-14T13:11:05.955Z,64.18744
2022-10-14T13:16:07.549Z,63.50177
2022-10-14T13:21:09.192Z,67.13002
2022-10-14T13:26:10.788Z,64.55192
2022-10-14T13:31:12.397Z,63.90568
2022-10-14T13:36:14.075Z,66.46989
2022-10-14T13:41:15.706Z,65.99066
2022-10-14T13:46:17.270Z,63.35374
2022-10-14T13:51:31.980Z,64.69725
2022-10-14T13:56:37.476Z,69.29347
2022-10-14T14:01:39.182Z,67.17708
2022-10-14T14:06:52.312Z,71.41222
2022-10-14T14:12:05.027Z,65.11387
2022-10-14T14:17:06.636Z,68.04307
2022-10-14T14:22:08.285Z,66.33182
2022-10-14T14:27:09.914Z,71.27028
2022-10-14T14:32:11.553Z,66.91869
2022-10-14T14:37:43.840Z,67.26942
2022-10-14T14:42:54.780Z,64.1481
2022-10-14T14:47:56.374Z,69.67728
2022-10-14T14:57:59.651Z,71.61031
2022-10-14T15:03:01.416Z,66.93598
2022-10-14T15:08:03.021Z,68.62324
2022-10-14T15:13:04.632Z,70.28597
2022-10-14T15:18:06.290Z,65.18859
2022-10-14T15:23:07.883Z,70.72075
2022-10-14T15:28:09.471Z,69.20977
2022-10-14T15:33:11.020Z,67.90445
2022-10-14T15:38:16.212Z,65.50368
2022-10-14T15:43:18.425Z,65.43502
2022-10-14T15:48:20.011Z,66.05296
2022-10-14T15:53:21.636Z,70.29776
2022-10-14T15:58:28.320Z,71.54886
2022-10-14T16:03:29.884Z,65.37705
2022-10-14T16:08:31.455Z,62.68259
2022-10-14T16:13:33.051Z,64.5564
2022-10-14T16:18:34.647Z,64.04917
2022-10-14T16:23:36.361Z,67.07863
2022-10-14T16:28:38.043Z,63.31567
2022-10-14T16:33:24.269Z,65.48679
2022-10-14T16:38:25.854Z,62.16303
2022-10-14T16:41:58.087Z,66.44818
2022-10-14T16:46:59.608Z,61.38812
2022-10-14T16:52:01.543Z,60.66732
2022-10-14T16:54:36.207Z,59.52339
2022-10-14T16:56:54.885Z,61.66209
2022-10-14T17:00:11.131Z,57.30233
2022-10-14T17:04:43.060Z,58.50868
2022-10-14T17:09:44.584Z,57.5619
2022-10-14T17:11:43.716Z,57.08787
2022-10-14T17:16:45.227Z,51.56495
2022-10-14T17:18:23.314Z,49.67837
2022-10-14T17:20:38.560Z,51.51055
2022-10-14T17:25:38.933Z,56.67263
2022-10-14T17:30:40.527Z,58.31367
2022-10-14T17:35:42.144Z,61.37894
2022-10-14T17:40:43.843Z,52.04858
2022-10-14T17:45:45.452Z,50.96414
2022-10-14T17:50:47.018Z,49.3686
2022-10-14T17:55:50.682Z,47.84373
2022-10-14T18:00:54.450Z,47.57984
2022-10-14T18:05:56.040Z,49.11613
2022-10-14T18:10:57.622Z,49.72282
2022-10-14T18:15:59.232Z,47.03005
2022-10-14T18:21:00.865Z,44.79733
2022-10-14T18:26:02.501Z,46.5451
2022-10-14T18:31:04.150Z,47.80019
2022-10-14T18:36:05.772Z,44.69908
2022-10-14T18:41:07.418Z,44.97486
2022-10-14T18:46:09.031Z,43.72989
2022-10-14T18:51:10.628Z,42.81088
2022-10-14T18:56:12.326Z,43.92421
2022-10-14T19:01:13.961Z,43.35338
2022-10-14T19:06:15.694Z,40.54484
2022-10-14T19:11:17.297Z,40.01701
2022-10-14T19:16:18.912Z,39.01099
2022-10-14T19:21:20.541Z,38.24552
2022-10-14T19:26:22.180Z,38.26324
2022-10-14T19:31:23.786Z,39.91935
2022-10-14T19:36:25.496Z,40.98515
2022-10-14T19:41:27.141Z,42.5975
2022-10-14T19:46:28.806Z,39.23551
2022-10-14T19:51:30.451Z,37.43161
2022-10-14T19:56:32.031Z,40.84546
2022-10-14T20:01:33.831Z,39.60925
2022-10-14T20:06:35.546Z,36.87915
2022-10-14T20:11:37.226Z,36.76431
2022-10-14T20:16:38.801Z,36.42642
2022-10-14T20:21:40.429Z,35.37217
2022-10-14T20:26:42.071Z,35.29703
2022-10-14T20:31:43.726Z,34.30163
2022-10-14T20:36:45.326Z,33.12302
2022-10-14T20:41:46.958Z,35.16676
2022-10-14T20:46:48.529Z,34.00747
2022-10-14T20:51:50.109Z,32.56484
2022-10-14T20:56:51.735Z,32.40771
2022-10-14T21:01:53.358Z,34.29033
2022-10-14T21:06:54.985Z,35.49491
2022-10-14T21:11:56.575Z,34.80926
2022-10-14T21:16:58.202Z,35.83151
2022-10-14T21:21:59.850Z,35.84919
2022-10-14T21:27:01.449Z,37.90312
2022-10-14T21:32:03.054Z,35.78722
2022-10-14T21:37:04.712Z,36.55854
2022-10-14T21:42:06.291Z,35.24853
2022-10-14T21:47:08.029Z,38.72596
2022-10-14T21:52:09.653Z,37.62184
2022-10-14T21:57:11.255Z,36.48645
2022-10-14T22:02:12.846Z,35.92256
2022-10-14T22:07:14.451Z,36.45447
2022-10-14T22:12:16.055Z,38.64587
2022-10-14T22:17:17.625Z,36.89508
2022-10-14T22:22:19.211Z,35.14118
2022-10-14T22:27:21.079Z,33.84016
2022-10-14T22:32:22.887Z,36.23299
2022-10-14T22:37:24.808Z,34.12613
2022-10-14T22:47:29.019Z,35.34768
2022-10-14T22:52:30.612Z,35.4764
2022-10-14T22:57:32.200Z,32.4153
2022-10-14T23:02:33.885Z,33.61582
2022-10-14T23:07:35.508Z,34.28417
2022-10-14T23:12:37.094Z,35.35783
2022-10-14T23:17:38.691Z,34.98951
2022-10-14T23:22:40.279Z,37.42346
2022-10-14T23:27:41.903Z,39.10941
2022-10-14T23:32:43.542Z,37.5332
2022-10-14T23:37:45.114Z,39.5234
2022-10-14T23:44:49.497Z,39.5063
2022-10-14T23:49:51.139Z,40.5672
2022-10-14T23:54:52.823Z,41.04194
2022-10-14T23:59:54.561Z,41.3506
